createdAt,value
2022-10-17T00:00:42.464Z,13.49
2022-10-17T00:03:09.512Z,13.55
2022-10-17T00:05:41.096Z,13.57
2022-10-17T00:08:07.755Z,13.57
2022-10-17T00:10:34.543Z,13.56
2022-10-17T00:13:01.323Z,13.45
2022-10-17T00:15:28.074Z,13.51
2022-10-17T00:17:54.661Z,13.51
2022-10-17T00:20:21.204Z,13.54
2022-10-17T00:22:47.728Z,13.57
2022-10-17T00:25:14.448Z,13.61
2022-10-17T00:27:41.986Z,13.58
2022-10-17T00:30:12.651Z,13.38
2022-10-17T00:32:39.742Z,13.62
2022-10-17T00:35:06.618Z,13.49
2022-10-17T00:37:33.684Z,13.59
2022-10-17T00:40:00.454Z,13.51
2022-10-17T00:42:28.387Z,13.61
2022-10-17T00:45:00.900Z,13.56
2022-10-17T00:47:28.849Z,13.52
2022-10-17T00:49:55.538Z,13.56
2022-10-17T00:52:26.670Z,13.53
2022-10-17T00:55:29.544Z,13.51
2022-10-17T00:57:57.819Z,13.43
2022-10-17T01:00:24.954Z,13.47
2022-10-17T01:02:51.712Z,13.33
2022-10-17T01:05:18.974Z,13.46
2022-10-17T01:07:47.206Z,13.48
2022-10-17T01:10:14.931Z,13.48
2022-10-17T01:12:52.844Z,13.44
2022-10-17T01:16:04.126Z,13.35
2022-10-17T01:18:54.841Z,13.46
2022-10-17T01:21:21.673Z,13.46
2022-10-17T01:24:14.612Z,13.43
2022-10-17T01:26:43.686Z,13.29
2022-10-17T01:29:13.242Z,13.30
2022-10-17T01:32:05.890Z,13.43
2022-10-17T01:34:39.546Z,13.41
2022-10-17T01:37:21.761Z,13.40
2022-10-17T01:40:17.270Z,13.35
2022-10-17T01:43:02.704Z,13.32
2022-10-17T01:45:37.016Z,13.23
2022-10-17T01:48:09.945Z,13.17
2022-10-17T01:50:41.783Z,13.27
2022-10-17T01:53:14.763Z,13.25
2022-10-17T01:55:44.226Z,13.19
2022-10-17T01:58:16.772Z,13.07
2022-10-17T02:00:45.523Z,13.15
2022-10-17T02:03:17.398Z,12.97
2022-10-17T02:05:44.816Z,13.08
2022-10-17T02:08:12.209Z,12.96
2022-10-17T02:10:56.048Z,12.97
2022-10-17T02:13:31.776Z,12.92
2022-10-17T02:16:35.640Z,13.03
2022-10-17T02:19:14.934Z,12.97
2022-10-17T02:21:51.209Z,12.99
2022-10-17T02:24:31.195Z,12.93
2022-10-17T02:27:11.910Z,12.90
2022-10-17T02:29:49.184Z,12.76
2022-10-17T02:32:26.590Z,12.82
2022-10-17T02:34:58.452Z,12.70
2022-10-17T02:37:29.203Z,12.85
2022-10-17T02:39:59.570Z,12.83
2022-10-17T02:42:27.534Z,12.81
2022-10-17T02:44:57.641Z,12.81
2022-10-17T02:47:35.097Z,12.81
2022-10-17T02:50:01.754Z,12.71
2022-10-17T02:52:48.440Z,12.68
2022-10-17T02:55:33.431Z,12.82
2022-10-17T02:58:05.287Z,12.77
2022-10-17T03:00:32.842Z,12.84
2022-10-17T03:02:59.367Z,12.87
2022-10-17T03:05:28.991Z,12.83
2022-10-17T03:07:56.945Z,12.94
2022-10-17T03:10:23.838Z,12.96
2022-10-17T03:12:50.338Z,12.91
2022-10-17T03:15:16.926Z,12.88
2022-10-17T03:17:43.516Z,12.95
2022-10-17T03:20:10.419Z,12.88
2022-10-17T03:22:37.181Z,13.00
2022-10-17T03:25:03.857Z,13.00
2022-10-17T03:27:30.718Z,12.89
2022-10-17T03:29:57.543Z,12.99
2022-10-17T03:32:24.094Z,12.98
2022-10-17T03:34:50.611Z,12.90
2022-10-17T03:37:17.185Z,12.90
2022-10-17T03:39:43.727Z,12.88
2022-10-17T03:42:10.266Z,12.93
2022-10-17T03:44:36.753Z,12.93
2022-10-17T03:47:03.258Z,12.79
2022-10-17T03:49:29.758Z,12.87
2022-10-17T03:51:56.321Z,12.77
2022-10-17T03:54:22.897Z,12.77
2022-10-17T03:56:49.514Z,12.90
2022-10-17T03:59:16.787Z,12.78
2022-10-17T04:01:43.518Z,12.74
2022-10-17T04:04:10.426Z,12.88
2022-10-17T04:06:37.749Z,12.88
2022-10-17T04:09:05.570Z,12.89
2022-10-17T04:11:32.281Z,12.88
2022-10-17T04:14:02.380Z,12.84
2022-10-17T04:16:29.289Z,12.77
2022-10-17T04:18:57.190Z,12.81
2022-10-17T04:21:25.523Z,12.80
2022-10-17T04:23:56.539Z,12.79
2022-10-17T04:26:23.567Z,12.76
2022-10-17T04:28:50.947Z,12.63
2022-10-17T04:31:18.654Z,12.72
2022-10-17T04:33:48.027Z,12.71
2022-10-17T04:36:19.595Z,12.69
2022-10-17T04:38:46.489Z,12.72
2022-10-17T04:41:17.120Z,12.75
2022-10-17T04:43:46.905Z,12.73
2022-10-17T04:46:16.794Z,12.69
2022-10-17T04:48:43.316Z,12.55
2022-10-17T04:51:20.733Z,12.66
2022-10-17T04:53:50.061Z,12.52
2022-10-17T04:56:19.171Z,12.60
2022-10-17T04:58:47.998Z,12.60
2022-10-17T05:01:17.549Z,12.50
2022-10-17T05:03:44.439Z,12.49
2022-10-17T05:06:16.251Z,12.54
2022-10-17T05:08:43.071Z,12.54
2022-10-17T05:11:21.570Z,12.52
2022-10-17T05:13:56.215Z,12.50
2022-10-17T05:16:23.971Z,12.47
2022-10-17T05:18:53.074Z,12.44
2022-10-17T05:21:21.127Z,12.43
2022-10-17T05:23:47.823Z,12.40
2022-10-17T05:26:14.873Z,12.38
2022-10-17T05:28:41.644Z,12.35
2022-10-17T05:31:10.568Z,12.27
2022-10-17T05:33:39.789Z,12.30
2022-10-17T05:36:07.338Z,12.30
2022-10-17T05:38:34.061Z,12.36
2022-10-17T05:41:02.251Z,12.18
2022-10-17T05:43:29.824Z,12.33
2022-10-17T05:45:56.751Z,12.28
2022-10-17T05:48:23.870Z,12.18
2022-10-17T05:50:50.392Z,12.33
2022-10-17T05:53:17.482Z,12.33
2022-10-17T05:55:44.021Z,12.34
2022-10-17T05:58:17.679Z,12.24
2022-10-17T06:00:49.059Z,12.21
2022-10-17T06:03:15.633Z,12.31
2022-10-17T06:05:42.233Z,12.41
2022-10-17T06:08:08.802Z,12.47
2022-10-17T06:10:35.534Z,12.38
2022-10-17T06:13:02.116Z,12.55
2022-10-17T06:15:28.713Z,12.61
2022-10-17T06:17:55.356Z,12.54
2022-10-17T06:20:21.958Z,12.71
2022-10-17T06:22:48.499Z,12.78
2022-10-17T06:25:15.036Z,12.78
2022-10-17T06:27:41.709Z,12.84
2022-10-17T06:30:08.958Z,12.92
2022-10-17T06:32:35.486Z,12.88
2022-10-17T06:35:01.980Z,13.08
2022-10-17T06:37:35.596Z,13.14
2022-10-17T06:40:04.538Z,13.21
2022-10-17T06:42:31.079Z,13.23
2022-10-17T06:44:57.649Z,13.29
2022-10-17T06:47:24.139Z,13.32
2022-10-17T06:49:50.801Z,13.29
2022-10-17T06:52:17.327Z,13.33
2022-10-17T06:54:44.519Z,13.36
2022-10-17T06:57:11.067Z,13.46
2022-10-17T06:59:37.627Z,13.58
2022-10-17T07:02:05.413Z,13.62
2022-10-17T07:04:32.297Z,13.58
2022-10-17T07:09:31.360Z,13.88
2022-10-17T07:11:58.264Z,13.94
2022-10-17T07:14:31.808Z,14.25
2022-10-17T07:16:59.553Z,14.39
2022-10-17T07:19:27.064Z,14.69
2022-10-17T07:21:54.214Z,14.82
2022-10-17T07:24:21.160Z,14.98
2022-10-17T07:26:47.730Z,15.18
2022-10-17T07:29:14.326Z,15.32
2022-10-17T07:31:40.903Z,15.58
2022-10-17T07:34:07.468Z,15.77
2022-10-17T07:36:34.154Z,15.75
2022-10-17T07:39:00.674Z,16.01
2022-10-17T07:41:27.808Z,16.22
2022-10-17T07:43:54.300Z,16.29
2022-10-17T07:46:20.861Z,16.37
2022-10-17T07:48:47.415Z,16.41
2022-10-17T07:51:13.966Z,16.24
2022-10-17T07:53:42.726Z,16.37
2022-10-17T07:56:11.955Z,16.45
2022-10-17T07:58:38.527Z,16.60
2022-10-17T08:01:10.763Z,16.78
2022-10-17T08:03:42.854Z,17.06
2022-10-17T08:06:09.486Z,17.23
2022-10-17T08:08:36.030Z,17.41
2022-10-17T08:11:07.941Z,17.50
2022-10-17T08:13:35.232Z,17.60
2022-10-17T08:16:05.281Z,17.65
2022-10-17T08:18:32.137Z,18.02
2022-10-17T08:21:03.446Z,18.14
2022-10-17T08:23:30.069Z,18.02
2022-10-17T08:26:00.566Z,18.00
2022-10-17T08:28:26.996Z,17.83
2022-10-17T08:30:53.723Z,17.69
2022-10-17T08:33:20.260Z,17.51
2022-10-17T08:35:47.116Z,17.38
2022-10-17T08:38:14.189Z,17.34
2022-10-17T08:40:42.987Z,17.37
2022-10-17T08:43:24.734Z,17.43
2022-10-17T08:46:01.066Z,17.44
2022-10-17T08:48:31.616Z,17.41
2022-10-17T08:51:12.933Z,17.61
2022-10-17T08:53:47.728Z,17.67
2022-10-17T08:56:20.011Z,17.77
2022-10-17T08:58:53.046Z,17.91
2022-10-17T09:01:31.848Z,17.93
2022-10-17T09:04:07.845Z,18.14
2022-10-17T09:06:51.626Z,18.22
2022-10-17T09:09:44.726Z,18.33
2022-10-17T09:12:49.606Z,18.41
2022-10-17T09:15:43.101Z,18.50
2022-10-17T09:18:26.665Z,18.52
2022-10-17T09:21:10.537Z,18.54
2022-10-17T09:23:47.190Z,18.48
2022-10-17T09:26:14.204Z,18.54
2022-10-17T09:28:42.531Z,18.65
2022-10-17T09:31:20.423Z,18.75
2022-10-17T09:33:54.445Z,18.93
2022-10-17T09:36:29.293Z,19.00
2022-10-17T09:38:59.001Z,18.96
2022-10-17T09:41:49.855Z,18.84
2022-10-17T09:44:25.944Z,18.79
2022-10-17T09:47:18.296Z,18.79
2022-10-17T09:49:47.001Z,18.87
2022-10-17T09:52:18.352Z,18.72
2022-10-17T09:54:49.853Z,18.96
2022-10-17T09:57:18.515Z,19.13
2022-10-17T09:59:46.607Z,19.16
2022-10-17T10:02:13.046Z,19.13
2022-10-17T10:05:09.562Z,19.01
2022-10-17T10:07:39.123Z,19.07
2022-10-17T10:10:08.909Z,19.20
2022-10-17T10:12:39.114Z,19.39
2022-10-17T10:15:34.063Z,19.59
2022-10-17T10:18:00.994Z,19.77
2022-10-17T10:20:35.191Z,19.82
2022-10-17T10:23:17.312Z,19.87
2022-10-17T10:26:21.548Z,20.08
2022-10-17T10:29:01.767Z,19.93
2022-10-17T10:31:35.504Z,19.93
2022-10-17T10:34:18.772Z,19.82
2022-10-17T10:37:02.478Z,19.79
2022-10-17T10:39:47.743Z,19.92
2022-10-17T10:42:34.467Z,19.92
2022-10-17T10:45:46.470Z,19.95
2022-10-17T10:48:23.062Z,19.93
2022-10-17T10:50:54.402Z,20.25
2022-10-17T10:53:43.873Z,20.45
2022-10-17T10:56:25.422Z,20.76
2022-10-17T10:59:00.342Z,20.81
2022-10-17T11:01:48.158Z,20.74
2022-10-17T11:04:20.902Z,20.89
2022-10-17T11:06:50.051Z,20.98
2022-10-17T11:09:31.404Z,21.01
2022-10-17T11:12:07.913Z,21.15
2022-10-17T11:14:52.075Z,21.22
2022-10-17T11:17:42.830Z,21.54
2022-10-17T11:20:09.268Z,21.57
2022-10-17T11:22:44.494Z,21.54
2022-10-17T11:25:22.611Z,21.61
2022-10-17T11:27:49.143Z,21.57
2022-10-17T11:30:16.666Z,21.54
2022-10-17T11:32:45.159Z,21.54
2022-10-17T11:35:24.280Z,21.79
2022-10-17T11:38:06.365Z,21.95
2022-10-17T11:40:36.089Z,22.12
2022-10-17T11:43:44.967Z,22.18
2022-10-17T11:46:23.755Z,22.39
2022-10-17T11:48:58.975Z,22.39
2022-10-17T11:54:22.123Z,22.43
2022-10-17T11:57:28.761Z,22.53
2022-10-17T11:59:55.239Z,22.60
2022-10-17T12:02:45.991Z,22.63
2022-10-17T12:05:37.055Z,22.65
2022-10-17T12:08:16.666Z,22.66
2022-10-17T12:11:01.206Z,22.68
2022-10-17T12:13:28.105Z,22.80
2022-10-17T12:15:55.870Z,22.75
2022-10-17T12:18:25.599Z,22.83
2022-10-17T12:21:00.177Z,22.77
2022-10-17T12:23:31.648Z,22.78
2022-10-17T12:26:05.444Z,22.79
2022-10-17T12:28:38.143Z,22.91
2022-10-17T12:31:10.153Z,23.00
2022-10-17T12:33:45.774Z,23.03
2022-10-17T12:36:27.670Z,23.12
2022-10-17T12:39:03.014Z,23.14
2022-10-17T12:41:38.665Z,23.19
2022-10-17T12:44:14.795Z,23.12
2022-10-17T12:46:51.778Z,23.29
2022-10-17T12:49:41.154Z,23.32
2022-10-17T12:52:32.425Z,23.20
2022-10-17T12:55:11.957Z,23.05
2022-10-17T12:57:58.730Z,23.16
2022-10-17T13:00:31.226Z,22.99
2022-10-17T13:03:11.207Z,23.08
2022-10-17T13:05:40.571Z,22.90
2022-10-17T13:08:14.896Z,22.94
2022-10-17T13:10:46.312Z,22.96
2022-10-17T13:13:21.271Z,22.92
2022-10-17T13:15:53.278Z,22.84
2022-10-17T13:18:22.928Z,22.82
2022-10-17T13:21:05.331Z,22.80
2022-10-17T13:23:34.657Z,23.04
2022-10-17T13:26:13.521Z,23.12
2022-10-17T13:28:40.165Z,23.12
2022-10-17T13:31:07.931Z,23.21
2022-10-17T13:33:39.041Z,23.32
2022-10-17T13:36:15.903Z,23.52
2022-10-17T13:38:43.019Z,23.79
2022-10-17T13:41:34.697Z,24.49
2022-10-17T13:44:07.659Z,25.12
2022-10-17T13:46:38.282Z,25.27
2022-10-17T13:49:18.526Z,24.95
2022-10-17T13:51:47.640Z,24.32
2022-10-17T13:54:26.005Z,23.85
2022-10-17T13:56:57.619Z,23.40
2022-10-17T13:59:30.018Z,23.20
2022-10-17T14:01:56.858Z,23.14
2022-10-17T14:04:23.329Z,23.07
2022-10-17T14:06:52.318Z,23.03
2022-10-17T14:09:25.981Z,22.99
2022-10-17T14:12:03.880Z,22.93
2022-10-17T14:14:46.046Z,22.87
2022-10-17T14:17:28.907Z,22.81
2022-10-17T14:20:26.586Z,22.65
2022-10-17T14:22:50.612Z,22.57
2022-10-17T14:25:37.611Z,22.71
2022-10-17T14:28:14.391Z,22.68
2022-10-17T14:30:56.312Z,22.64
2022-10-17T14:33:30.163Z,22.59
2022-10-17T14:35:59.675Z,22.58
2022-10-17T14:38:28.195Z,22.45
2022-10-17T14:41:23.632Z,22.52
2022-10-17T14:43:58.123Z,22.37
2022-10-17T14:46:25.601Z,22.44
2022-10-17T14:48:55.155Z,22.22
2022-10-17T14:51:21.832Z,22.26
2022-10-17T14:54:26.014Z,22.44
2022-10-17T14:56:53.706Z,22.49
2022-10-17T14:59:51.709Z,22.57
2022-10-17T15:02:10.948Z,22.48
2022-10-17T15:04:37.598Z,22.56
2022-10-17T15:07:04.140Z,22.59
2022-10-17T15:09:31.138Z,22.64
2022-10-17T15:12:02.710Z,22.62
2022-10-17T15:14:29.240Z,22.56
2022-10-17T15:16:55.780Z,22.47
2022-10-17T15:19:22.254Z,22.45
2022-10-17T15:21:48.781Z,22.31
2022-10-17T15:24:15.871Z,22.29
2022-10-17T15:26:42.569Z,22.30
2022-10-17T15:29:14.785Z,22.21
2022-10-17T15:31:41.651Z,22.20
2022-10-17T15:34:08.112Z,22.12
2022-10-17T15:36:40.041Z,22.09
2022-10-17T15:39:06.591Z,22.10
2022-10-17T15:41:33.466Z,22.10
2022-10-17T15:44:00.356Z,22.02
2022-10-17T15:46:29.291Z,21.96
2022-10-17T15:48:57.192Z,21.90
2022-10-17T15:51:23.880Z,21.80
2022-10-17T15:53:50.380Z,21.73
2022-10-17T15:56:38.418Z,21.63
2022-10-17T15:59:10.669Z,21.50
2022-10-17T16:01:39.057Z,21.48
2022-10-17T16:04:05.723Z,21.29
2022-10-17T16:06:32.336Z,21.19
2022-10-17T16:08:58.868Z,21.26
2022-10-17T16:11:40.030Z,21.12
2022-10-17T16:14:18.264Z,21.11
2022-10-17T16:16:44.948Z,21.04
2022-10-17T16:19:11.530Z,20.94
2022-10-17T16:21:40.334Z,20.83
2022-10-17T16:24:11.055Z,20.90
2022-10-17T16:26:41.175Z,20.83
2022-10-17T16:29:09.300Z,20.71
2022-10-17T16:31:39.787Z,20.66
2022-10-17T16:34:06.839Z,20.57
2022-10-17T16:36:33.401Z,20.56
2022-10-17T16:39:00.471Z,20.43
2022-10-17T16:41:32.790Z,20.39
2022-10-17T16:44:01.373Z,20.46
2022-10-17T16:46:29.668Z,20.32
2022-10-17T16:48:57.094Z,20.37
2022-10-17T16:51:24.325Z,20.27
2022-10-17T16:53:52.895Z,20.26
2022-10-17T16:56:22.377Z,20.21
2022-10-17T16:58:50.090Z,20.19
2022-10-17T17:01:20.210Z,20.13
2022-10-17T17:03:47.918Z,20.12
2022-10-17T17:06:20.713Z,20.06
2022-10-17T17:08:47.965Z,20.08
2022-10-17T17:11:21.365Z,20.05
2022-10-17T17:13:50.535Z,20.03
2022-10-17T17:16:25.423Z,19.99
2022-10-17T17:18:59.064Z,19.95
2022-10-17T17:21:28.351Z,19.90
2022-10-17T17:23:58.680Z,19.86
2022-10-17T17:26:28.386Z,19.84
2022-10-17T17:29:00.808Z,19.76
2022-10-17T17:31:30.884Z,19.72
2022-10-17T17:34:07.194Z,19.70
2022-10-17T17:36:39.335Z,19.65
2022-10-17T17:39:12.493Z,19.65
2022-10-17T17:41:41.221Z,19.64
2022-10-17T17:44:12.481Z,19.63
2022-10-17T17:46:49.103Z,19.61
2022-10-17T17:49:25.939Z,19.60
2022-10-17T17:51:57.159Z,19.60
2022-10-17T17:54:24.280Z,19.58
2022-10-17T17:56:53.183Z,19.59
2022-10-17T17:59:22.154Z,19.57
2022-10-17T18:01:53.593Z,19.56
2022-10-17T18:04:23.991Z,19.45
2022-10-17T18:06:50.554Z,19.51
2022-10-17T18:09:17.155Z,19.28
2022-10-17T18:11:43.684Z,19.32
2022-10-17T18:14:12.477Z,19.25
2022-10-17T18:16:39.160Z,19.27
2022-10-17T18:19:07.451Z,19.19
2022-10-17T18:21:35.081Z,19.12
2022-10-17T18:24:01.882Z,19.09
2022-10-17T18:26:28.744Z,18.92
2022-10-17T18:28:55.588Z,19.06
2022-10-17T18:31:35.661Z,19.03
2022-10-17T18:34:04.830Z,19.01
2022-10-17T18:36:32.847Z,18.96
2022-10-17T18:39:00.463Z,18.92
2022-10-17T18:41:27.782Z,18.95
2022-10-17T18:43:55.678Z,18.92
2022-10-17T18:46:36.015Z,18.94
2022-10-17T18:49:02.922Z,18.94
2022-10-17T18:51:29.477Z,18.83
2022-10-17T18:53:58.737Z,18.96
2022-10-17T18:56:26.084Z,18.81
2022-10-17T18:58:52.732Z,18.94
2022-10-17T19:01:24.307Z,18.96
2022-10-17T19:03:54.971Z,18.93
2022-10-17T19:06:27.770Z,18.93
2022-10-17T19:09:07.534Z,18.89
2022-10-17T19:11:37.880Z,18.84
2022-10-17T19:14:05.937Z,18.80
2022-10-17T19:16:38.720Z,18.78
2022-10-17T19:19:13.613Z,18.75
2022-10-17T19:21:42.954Z,18.76
2022-10-17T19:24:16.412Z,18.70
2022-10-17T19:26:44.234Z,18.76
2022-10-17T19:29:14.546Z,18.73
2022-10-17T19:31:41.724Z,18.58
2022-10-17T19:34:09.475Z,18.71
2022-10-17T19:36:37.432Z,18.55
2022-10-17T19:39:07.236Z,18.67
2022-10-17T19:41:36.640Z,18.58
2022-10-17T19:44:04.779Z,18.58
2022-10-17T19:46:36.215Z,18.52
2022-10-17T19:49:05.120Z,18.49
2022-10-17T19:51:36.608Z,18.43
2022-10-17T19:54:03.926Z,18.36
2022-10-17T19:56:41.358Z,18.34
2022-10-17T19:59:12.795Z,18.31
2022-10-17T20:01:44.660Z,18.29
2022-10-17T20:04:13.688Z,18.25
2022-10-17T20:06:41.226Z,18.16
2022-10-17T20:09:11.144Z,18.14
2022-10-17T20:11:40.734Z,18.15
2022-10-17T20:14:07.655Z,18.17
2022-10-17T20:16:35.692Z,18.17
2022-10-17T20:19:07.269Z,18.12
2022-10-17T20:21:36.406Z,18.15
2022-10-17T20:24:06.420Z,17.90
2022-10-17T20:26:38.147Z,18.10
2022-10-17T20:29:10.924Z,17.97
2022-10-17T20:31:38.061Z,18.06
2022-10-17T20:34:04.657Z,18.06
2022-10-17T20:36:32.505Z,18.05
2022-10-17T20:38:59.751Z,18.04
2022-10-17T20:41:27.266Z,18.04
2022-10-17T20:43:55.511Z,18.03
2022-10-17T20:46:35.953Z,17.95
2022-10-17T20:49:07.517Z,18.02
2022-10-17T20:51:34.787Z,18.02
2022-10-17T20:54:03.263Z,18.00
2022-10-17T20:56:40.127Z,17.87
2022-10-17T20:59:12.547Z,17.95
2022-10-17T21:01:39.101Z,17.95
2022-10-17T21:04:33.336Z,17.91
2022-10-17T21:06:53.493Z,17.91
2022-10-17T21:09:20.936Z,17.87
2022-10-17T21:11:51.159Z,17.85
2022-10-17T21:14:17.751Z,17.85
2022-10-17T21:16:44.910Z,17.86
2022-10-17T21:19:12.286Z,17.85
2022-10-17T21:21:41.695Z,17.79
2022-10-17T21:24:18.020Z,17.75
2022-10-17T21:26:46.306Z,17.69
2022-10-17T21:29:14.035Z,17.82
2022-10-17T21:31:42.979Z,17.81
2022-10-17T21:34:13.501Z,17.57
2022-10-17T21:36:40.767Z,17.78
2022-10-17T21:41:39.498Z,17.71
2022-10-17T21:44:11.679Z,17.70
2022-10-17T21:46:38.216Z,17.66
2022-10-17T21:49:04.780Z,17.69
2022-10-17T21:51:31.326Z,17.62
2022-10-17T21:53:58.252Z,17.74
2022-10-17T21:56:31.085Z,17.71
2022-10-17T21:58:58.808Z,17.63
2022-10-17T22:01:29.088Z,17.69
2022-10-17T22:03:58.719Z,17.70
2022-10-17T22:06:43.246Z,17.73
2022-10-17T22:09:16.760Z,17.70
2022-10-17T22:11:50.170Z,17.71
2022-10-17T22:14:19.536Z,17.71
2022-10-17T22:16:47.341Z,17.56
2022-10-17T22:19:17.778Z,17.58
2022-10-17T22:21:44.360Z,17.71
2022-10-17T22:24:12.968Z,17.64
2022-10-17T22:26:39.997Z,17.65
2022-10-17T22:29:08.285Z,17.65
2022-10-17T22:31:35.720Z,17.54
2022-10-17T22:34:03.605Z,17.63
2022-10-17T22:36:31.752Z,17.56
2022-10-17T22:38:58.349Z,17.48
2022-10-17T22:41:24.890Z,17.45
2022-10-17T22:43:51.427Z,17.45
2022-10-17T22:46:18.081Z,17.38
2022-10-17T22:48:44.865Z,17.39
2022-10-17T22:51:12.004Z,17.37
2022-10-17T22:53:38.901Z,17.35
2022-10-17T22:56:09.291Z,17.15
2022-10-17T22:58:36.255Z,17.17
2022-10-17T23:01:04.785Z,17.29
2022-10-17T23:03:32.352Z,17.27
2022-10-17T23:05:59.176Z,17.12
2022-10-17T23:08:27.081Z,17.25
2022-10-17T23:10:53.938Z,17.26
2022-10-17T23:13:22.028Z,17.18
2022-10-17T23:15:53.321Z,17.30
2022-10-17T23:18:20.739Z,17.21
2022-10-17T23:20:47.659Z,17.32
2022-10-17T23:23:14.733Z,17.32
2022-10-17T23:25:41.790Z,17.28
2022-10-17T23:28:08.772Z,17.33
2022-10-17T23:30:36.380Z,17.30
2022-10-17T23:33:03.854Z,17.35
2022-10-17T23:35:30.679Z,17.35
2022-10-17T23:37:57.230Z,17.35
2022-10-17T23:40:24.103Z,17.37
2022-10-17T23:42:50.843Z,17.38
2022-10-17T23:45:18.395Z,17.40
2022-10-17T23:47:45.121Z,17.40
2022-10-17T23:50:11.906Z,17.41
2022-10-17T23:52:38.620Z,17.33
2022-10-17T23:55:05.752Z,17.40
2022-10-17T23:57:32.669Z,17.24
2022-10-17T23:59:59.556Z,17.32
